createdAt,value
2018-03-02T00:00:35.243Z,-7.35
2018-03-02T00:01:15.867Z,-7.36
2018-03-02T00:01:56.444Z,-7.35
2018-03-02T00:02:36.983Z,-7.43
2018-03-02T00:03:17.523Z,-7.43
2018-03-02T00:03:58.255Z,-7.46
2018-03-02T00:04:38.824Z,-7.43
2018-03-02T00:05:19.885Z,-7.43
2018-03-02T00:06:00.396Z,-7.49
2018-03-02T00:06:40.939Z,-7.38
2018-03-02T00:07:21.488Z,-7.4
2018-03-02T00:08:02.108Z,-7.43
2018-03-02T00:08:42.675Z,-7.46
2018-03-02T00:09:23.262Z,-7.46
2018-03-02T00:10:03.819Z,-7.47
2018-03-02T00:10:44.360Z,-7.4
2018-03-02T00:11:24.922Z,-7.47
2018-03-02T00:12:05.529Z,-7.42
2018-03-02T00:12:46.055Z,-7.43
2018-03-02T00:13:26.606Z,-7.53
2018-03-02T00:14:07.225Z,-7.52
2018-03-02T00:14:47.776Z,-7.52
2018-03-02T00:15:28.356Z,-7.5
2018-03-02T00:16:08.866Z,-7.53
2018-03-02T00:16:49.414Z,-7.53
2018-03-02T00:17:30.036Z,-7.6
2018-03-02T00:18:10.559Z,-7.63
2018-03-02T00:18:51.102Z,-7.49
2018-03-02T00:19:31.919Z,-7.61
2018-03-02T00:20:12.556Z,-7.5
2018-03-02T00:20:53.136Z,-7.58
2018-03-02T00:21:33.929Z,-7.56
2018-03-02T00:22:14.512Z,-7.56
2018-03-02T00:22:55.082Z,-7.65
2018-03-02T00:23:35.653Z,-7.63
2018-03-02T00:24:16.276Z,-7.6
2018-03-02T00:24:56.928Z,-7.61
2018-03-02T00:25:38.065Z,-7.6
2018-03-02T00:26:18.847Z,-7.61
2018-03-02T00:26:59.497Z,-7.68
2018-03-02T00:27:40.085Z,-7.6
2018-03-02T00:28:20.742Z,-7.65
2018-03-02T00:29:01.524Z,-7.67
2018-03-02T00:29:41.977Z,-7.63
2018-03-02T00:30:22.595Z,-7.6
2018-03-02T00:31:03.166Z,-7.6
2018-03-02T00:31:43.725Z,-7.54
2018-03-02T00:32:24.310Z,-7.61
2018-03-02T00:33:04.878Z,-7.67
2018-03-02T00:33:45.416Z,-7.61
2018-03-02T00:34:25.974Z,-7.61
2018-03-02T00:35:06.552Z,-7.6
2018-03-02T00:35:47.103Z,-7.68
2018-03-02T00:36:27.629Z,-7.71
2018-03-02T00:37:08.442Z,-7.64
2018-03-02T00:37:49.362Z,-7.6
2018-03-02T00:38:29.874Z,-7.58
2018-03-02T00:39:10.403Z,-7.68
2018-03-02T00:39:50.952Z,-7.63
2018-03-02T00:40:31.490Z,-7.68
2018-03-02T00:41:12.031Z,-7.68
2018-03-02T00:41:52.720Z,-7.67
2018-03-02T00:42:33.258Z,-7.58
2018-03-02T00:43:13.903Z,-7.65
2018-03-02T00:43:54.550Z,-7.61
2018-03-02T00:44:35.152Z,-7.68
2018-03-02T00:45:15.728Z,-7.71
2018-03-02T00:45:56.273Z,-7.71
2018-03-02T00:46:36.846Z,-7.65
2018-03-02T00:47:17.389Z,-7.78
2018-03-02T00:47:57.937Z,-7.71
2018-03-02T00:48:38.499Z,-7.71
2018-03-02T00:49:19.249Z,-7.65
2018-03-02T00:49:59.834Z,-7.61
2018-03-02T00:50:40.622Z,-7.61
2018-03-02T00:51:21.128Z,-7.68
2018-03-02T00:52:01.694Z,-7.67
2018-03-02T00:52:42.344Z,-7.7
2018-03-02T00:53:22.976Z,-7.75
2018-03-02T00:54:03.523Z,-7.75
2018-03-02T00:54:44.067Z,-7.74
2018-03-02T00:55:24.622Z,-7.79
2018-03-02T00:56:05.160Z,-7.79
2018-03-02T00:56:45.734Z,-7.82
2018-03-02T00:57:26.304Z,-7.82
2018-03-02T00:58:06.897Z,-7.85
2018-03-02T00:58:47.458Z,-7.83
2018-03-02T00:59:28.009Z,-7.91
2018-03-02T01:00:08.571Z,-7.79
2018-03-02T01:00:49.127Z,-7.82
2018-03-02T01:01:29.676Z,-7.79
2018-03-02T01:02:10.217Z,-7.71
2018-03-02T01:02:50.911Z,-7.78
2018-03-02T01:03:31.472Z,-7.78
2018-03-02T01:04:12.013Z,-7.82
2018-03-02T01:04:52.578Z,-7.83
2018-03-02T01:05:33.105Z,-7.92
2018-03-02T01:06:13.668Z,-7.92
2018-03-02T01:06:54.217Z,-7.96
2018-03-02T01:07:34.763Z,-7.92
2018-03-02T01:08:15.311Z,-8.03
2018-03-02T01:08:55.897Z,-7.89
2018-03-02T01:09:36.477Z,-7.99
2018-03-02T01:10:17.050Z,-7.93
2018-03-02T01:10:57.632Z,-7.99
2018-03-02T01:11:38.224Z,-7.96
2018-03-02T01:12:18.752Z,-7.96
2018-03-02T01:12:59.299Z,-7.96
2018-03-02T01:13:39.838Z,-8.01
2018-03-02T01:14:20.376Z,-7.99
2018-03-02T01:15:00.925Z,-7.96
2018-03-02T01:15:41.514Z,-7.93
2018-03-02T01:16:22.070Z,-7.92
2018-03-02T01:17:02.694Z,-7.85
2018-03-02T01:17:43.255Z,-7.96
2018-03-02T01:18:23.809Z,-7.96
2018-03-02T01:19:04.371Z,-8.01
2018-03-02T01:19:44.937Z,-8.04
2018-03-02T01:20:25.546Z,-7.97
2018-03-02T01:21:06.118Z,-7.96
2018-03-02T01:21:46.703Z,-8.07
2018-03-02T01:22:27.255Z,-8.08
2018-03-02T01:23:07.825Z,-8.07
2018-03-02T01:23:48.395Z,-7.97
2018-03-02T01:24:28.950Z,-8.05
2018-03-02T01:25:09.501Z,-7.99
2018-03-02T01:25:50.056Z,-8.08
2018-03-02T01:26:30.606Z,-8.11
2018-03-02T01:27:11.149Z,-8.05
2018-03-02T01:27:51.700Z,-8.05
2018-03-02T01:28:32.240Z,-8.03
2018-03-02T01:29:12.798Z,-8.04
2018-03-02T01:29:53.337Z,-8.08
2018-03-02T01:30:33.904Z,-8.01
2018-03-02T01:31:14.442Z,-8.07
2018-03-02T01:31:54.983Z,-8.03
2018-03-02T01:32:35.554Z,-8.11
2018-03-02T01:33:16.088Z,-8.04
2018-03-02T01:33:56.686Z,-8.07
2018-03-02T01:34:37.219Z,-7.99
2018-03-02T01:35:17.768Z,-8.03
2018-03-02T01:35:58.330Z,-7.92
2018-03-02T01:36:38.883Z,-7.91
2018-03-02T01:37:19.433Z,-7.96
2018-03-02T01:37:59.968Z,-7.91
2018-03-02T01:38:40.506Z,-7.96
2018-03-02T01:39:21.060Z,-7.93
2018-03-02T01:40:01.597Z,-7.93
2018-03-02T01:40:42.147Z,-7.93
2018-03-02T01:41:22.697Z,-7.97
2018-03-02T01:42:03.247Z,-7.91
2018-03-02T01:42:43.795Z,-7.96
2018-03-02T01:43:24.351Z,-8.05
2018-03-02T01:44:04.957Z,-8.07
2018-03-02T01:44:45.531Z,-7.97
2018-03-02T01:45:26.096Z,-7.96
2018-03-02T01:46:06.648Z,-7.99
2018-03-02T01:47:43.964Z,-7.97
2018-03-02T01:48:24.518Z,-7.92
2018-03-02T01:49:05.068Z,-7.91
2018-03-02T01:49:45.626Z,-7.97
2018-03-02T01:50:26.174Z,-7.93
2018-03-02T01:51:06.722Z,-7.88
2018-03-02T01:51:47.260Z,-7.96
2018-03-02T01:52:27.811Z,-7.86
2018-03-02T01:53:08.366Z,-7.88
2018-03-02T01:53:48.914Z,-7.83
2018-03-02T01:54:29.457Z,-7.86
2018-03-02T01:55:10.020Z,-7.96
2018-03-02T01:55:50.570Z,-7.88
2018-03-02T01:56:31.143Z,-7.92
2018-03-02T01:57:11.662Z,-7.96
2018-03-02T01:57:52.212Z,-7.96
2018-03-02T01:58:32.756Z,-7.83
2018-03-02T01:59:13.316Z,-7.96
2018-03-02T01:59:53.862Z,-7.97
2018-03-02T02:00:34.416Z,-7.91
2018-03-02T02:01:14.957Z,-7.92
2018-03-02T02:01:55.495Z,-7.96
2018-03-02T02:02:36.054Z,-7.92
2018-03-02T02:03:16.607Z,-7.91
2018-03-02T02:03:57.162Z,-7.96
2018-03-02T02:04:37.709Z,-7.96
2018-03-02T02:05:18.249Z,-7.97
2018-03-02T02:05:58.811Z,-8.04
2018-03-02T02:06:39.370Z,-7.96
2018-03-02T02:07:19.913Z,-8.1
2018-03-02T02:08:00.465Z,-8.05
2018-03-02T02:08:41.032Z,-8.04
2018-03-02T02:09:21.610Z,-8.08
2018-03-02T02:10:02.163Z,-8.07
2018-03-02T02:10:42.705Z,-8.07
2018-03-02T02:11:23.245Z,-8.04
2018-03-02T02:12:03.809Z,-8.01
2018-03-02T02:12:44.370Z,-8.05
2018-03-02T02:13:24.917Z,-8.07
2018-03-02T02:14:05.493Z,-8.04
2018-03-02T02:14:46.045Z,-8.18
2018-03-02T02:15:26.606Z,-8.13
2018-03-02T02:16:07.194Z,-8.11
2018-03-02T02:16:47.743Z,-8.05
2018-03-02T02:17:28.314Z,-8.07
2018-03-02T02:18:08.860Z,-8.15
2018-03-02T02:18:49.426Z,-8.19
2018-03-02T02:19:29.963Z,-8.19
2018-03-02T02:20:10.570Z,-8.25
2018-03-02T02:20:51.121Z,-8.26
2018-03-02T02:21:31.681Z,-8.21
2018-03-02T02:22:12.226Z,-8.22
2018-03-02T02:22:52.775Z,-8.29
2018-03-02T02:23:33.318Z,-8.21
2018-03-02T02:24:13.875Z,-8.21
2018-03-02T02:24:54.487Z,-8.21
2018-03-02T02:25:35.034Z,-8.23
2018-03-02T02:26:15.583Z,-8.28
2018-03-02T02:26:56.119Z,-8.28
2018-03-02T02:27:36.684Z,-8.19
2018-03-02T02:28:17.224Z,-8.21
2018-03-02T02:28:57.773Z,-8.29
2018-03-02T02:29:38.364Z,-8.25
2018-03-02T02:30:18.917Z,-8.31
2018-03-02T02:30:59.482Z,-8.28
2018-03-02T02:31:40.031Z,-8.28
2018-03-02T02:32:20.593Z,-8.28
2018-03-02T02:33:01.134Z,-8.34
2018-03-02T02:33:41.698Z,-8.46
2018-03-02T02:34:22.244Z,-8.39
2018-03-02T02:35:02.783Z,-8.4
2018-03-02T02:35:43.351Z,-8.4
2018-03-02T02:36:23.899Z,-8.4
2018-03-02T02:37:04.433Z,-8.42
2018-03-02T02:37:44.999Z,-8.4
2018-03-02T02:38:25.585Z,-8.43
2018-03-02T02:39:06.140Z,-8.47
2018-03-02T02:39:46.681Z,-8.5
2018-03-02T02:40:27.224Z,-8.52
2018-03-02T02:41:07.780Z,-8.5
2018-03-02T02:41:48.357Z,-8.5
2018-03-02T02:42:28.896Z,-8.5
2018-03-02T02:43:09.441Z,-8.52
2018-03-02T02:43:49.988Z,-8.5
2018-03-02T02:44:30.539Z,-8.46
2018-03-02T02:45:11.093Z,-8.42
2018-03-02T02:45:51.711Z,-8.42
2018-03-02T02:46:32.238Z,-8.44
2018-03-02T02:47:12.803Z,-8.49
2018-03-02T02:47:53.356Z,-8.46
2018-03-02T02:48:33.912Z,-8.42
2018-03-02T02:49:14.484Z,-8.46
2018-03-02T02:49:55.042Z,-8.47
2018-03-02T02:50:35.602Z,-8.49
2018-03-02T02:51:16.141Z,-8.49
2018-03-02T02:51:56.692Z,-8.4
2018-03-02T02:52:37.236Z,-8.47
2018-03-02T02:53:17.778Z,-8.5
2018-03-02T02:53:58.323Z,-8.47
2018-03-02T02:54:38.883Z,-8.5
2018-03-02T02:55:19.434Z,-8.54
2018-03-02T02:55:59.986Z,-8.52
2018-03-02T02:56:40.544Z,-8.47
2018-03-02T02:57:21.105Z,-8.47
2018-03-02T02:58:01.662Z,-8.42
2018-03-02T02:58:42.226Z,-8.47
2018-03-02T02:59:22.797Z,-8.5
2018-03-02T03:00:03.355Z,-8.5
2018-03-02T03:00:43.906Z,-8.49
2018-03-02T03:01:24.471Z,-8.55
2018-03-02T03:02:05.027Z,-8.49
2018-03-02T03:02:45.571Z,-8.55
2018-03-02T03:03:26.120Z,-8.6
2018-03-02T03:04:06.671Z,-8.61
2018-03-02T03:04:47.227Z,-8.64
2018-03-02T03:05:27.787Z,-8.61
2018-03-02T03:06:08.346Z,-8.61
2018-03-02T03:06:48.917Z,-8.6
2018-03-02T03:07:29.486Z,-8.61
2018-03-02T03:08:10.038Z,-8.61
2018-03-02T03:08:50.583Z,-8.58
2018-03-02T03:09:31.180Z,-8.49
2018-03-02T03:10:11.699Z,-8.55
2018-03-02T03:10:52.242Z,-8.52
2018-03-02T03:11:32.809Z,-8.47
2018-03-02T03:12:13.364Z,-8.44
2018-03-02T03:12:53.919Z,-8.44
2018-03-02T03:13:34.484Z,-8.52
2018-03-02T03:14:15.037Z,-8.54
2018-03-02T03:14:55.602Z,-8.5
2018-03-02T03:15:36.159Z,-8.57
2018-03-02T03:16:16.721Z,-8.57
2018-03-02T03:16:57.269Z,-8.54
2018-03-02T03:17:37.825Z,-8.6
2018-03-02T03:18:18.392Z,-8.52
2018-03-02T03:18:58.933Z,-8.61
2018-03-02T03:19:39.491Z,-8.58
2018-03-02T03:20:20.092Z,-8.58
2018-03-02T03:21:00.604Z,-8.49
2018-03-02T03:21:41.196Z,-8.5
2018-03-02T03:22:21.735Z,-8.52
2018-03-02T03:23:02.291Z,-8.54
2018-03-02T03:23:42.851Z,-8.55
2018-03-02T03:24:23.398Z,-8.61
2018-03-02T03:25:03.952Z,-8.58
2018-03-02T03:25:44.509Z,-8.62
2018-03-02T03:26:25.069Z,-8.58
2018-03-02T03:27:05.632Z,-8.68
2018-03-02T03:27:46.186Z,-8.6
2018-03-02T03:28:26.736Z,-8.65
2018-03-02T03:29:07.292Z,-8.57
2018-03-02T03:29:47.849Z,-8.62
2018-03-02T03:30:28.400Z,-8.61
2018-03-02T03:31:08.962Z,-8.57
2018-03-02T03:31:49.504Z,-8.61
2018-03-02T03:32:30.061Z,-8.7
2018-03-02T03:33:10.630Z,-8.67
2018-03-02T03:33:51.163Z,-8.68
2018-03-02T03:34:31.719Z,-8.68
2018-03-02T03:35:12.261Z,-8.64
2018-03-02T03:35:52.912Z,-8.65
2018-03-02T03:36:33.454Z,-8.7
2018-03-02T03:37:14.012Z,-8.67
2018-03-02T03:37:54.592Z,-8.62
2018-03-02T03:38:35.123Z,-8.64
2018-03-02T03:39:15.671Z,-8.57
2018-03-02T03:39:56.223Z,-8.65
2018-03-02T03:40:36.775Z,-8.61
2018-03-02T03:41:17.329Z,-8.6
2018-03-02T03:41:57.894Z,-8.57
2018-03-02T03:42:38.436Z,-8.61
2018-03-02T03:43:18.995Z,-8.6
2018-03-02T03:43:59.563Z,-8.65
2018-03-02T03:44:40.112Z,-8.6
2018-03-02T03:45:20.665Z,-8.58
2018-03-02T03:46:01.217Z,-8.62
2018-03-02T03:46:41.780Z,-8.61
2018-03-02T03:47:22.351Z,-8.7
2018-03-02T03:48:02.898Z,-8.64
2018-03-02T03:48:43.495Z,-8.64
2018-03-02T03:49:24.041Z,-8.64
2018-03-02T03:50:04.639Z,-8.65
2018-03-02T03:50:45.176Z,-8.76
2018-03-02T03:51:25.725Z,-8.68
2018-03-02T03:52:06.277Z,-8.62
2018-03-02T03:52:46.842Z,-8.65
2018-03-02T03:53:27.388Z,-8.58
2018-03-02T03:54:07.942Z,-8.67
2018-03-02T03:54:48.513Z,-8.67
2018-03-02T03:55:29.105Z,-8.72
2018-03-02T03:56:09.647Z,-8.78
2018-03-02T03:56:50.187Z,-8.76
2018-03-02T03:57:30.798Z,-8.7
2018-03-02T03:58:11.299Z,-8.67
2018-03-02T03:58:51.849Z,-8.75
2018-03-02T03:59:32.421Z,-8.75
2018-03-02T04:00:12.963Z,-8.7
2018-03-02T04:00:53.516Z,-8.61
2018-03-02T04:01:34.075Z,-8.73
2018-03-02T04:02:14.611Z,-8.68
2018-03-02T04:02:55.151Z,-8.78
2018-03-02T04:03:35.720Z,-8.68
2018-03-02T04:04:16.279Z,-8.67
2018-03-02T04:04:56.802Z,-8.62
2018-03-02T04:05:37.371Z,-8.68
2018-03-02T04:06:17.932Z,-8.65
2018-03-02T04:06:58.489Z,-8.73
2018-03-02T04:07:39.030Z,-8.72
2018-03-02T04:08:19.609Z,-8.65
2018-03-02T04:09:00.157Z,-8.62
2018-03-02T04:09:40.706Z,-8.75
2018-03-02T04:10:21.257Z,-8.73
2018-03-02T04:11:01.838Z,-8.65
2018-03-02T04:11:42.410Z,-8.7
2018-03-02T04:12:22.967Z,-8.62
2018-03-02T04:13:03.515Z,-8.79
2018-03-02T04:13:44.079Z,-8.65
2018-03-02T04:14:24.644Z,-8.64
2018-03-02T04:15:05.185Z,-8.7
2018-03-02T04:15:45.736Z,-8.76
2018-03-02T04:16:26.293Z,-8.67
2018-03-02T04:17:06.852Z,-8.67
2018-03-02T04:17:47.374Z,-8.72
2018-03-02T04:18:27.916Z,-8.65
2018-03-02T04:19:08.471Z,-8.62
2018-03-02T04:19:49.025Z,-8.62
2018-03-02T04:20:29.567Z,-8.62
2018-03-02T04:21:10.119Z,-8.67
2018-03-02T04:21:50.666Z,-8.58
2018-03-02T04:22:31.233Z,-8.72
2018-03-02T04:23:11.784Z,-8.67
2018-03-02T04:23:52.334Z,-8.64
2018-03-02T04:24:32.887Z,-8.65
2018-03-02T04:25:13.460Z,-8.67
2018-03-02T04:25:53.991Z,-8.65
2018-03-02T04:26:34.572Z,-8.64
2018-03-02T04:27:15.107Z,-8.65
2018-03-02T04:27:55.679Z,-8.65
2018-03-02T04:28:36.202Z,-8.7
2018-03-02T04:29:16.758Z,-8.65
2018-03-02T04:29:57.302Z,-8.62
2018-03-02T04:30:37.862Z,-8.72
2018-03-02T04:31:18.426Z,-8.62
2018-03-02T04:31:58.985Z,-8.62
2018-03-02T04:32:39.541Z,-8.64
2018-03-02T04:33:20.122Z,-8.7
2018-03-02T04:34:00.670Z,-8.75
2018-03-02T04:34:41.228Z,-8.78
2018-03-02T04:35:21.783Z,-8.76
2018-03-02T04:36:02.352Z,-8.76
2018-03-02T04:36:42.916Z,-8.7
2018-03-02T04:37:23.465Z,-8.73
2018-03-02T04:38:04.014Z,-8.64
2018-03-02T04:38:44.570Z,-8.73
2018-03-02T04:39:25.113Z,-8.81
2018-03-02T04:40:05.676Z,-8.73
2018-03-02T04:40:46.250Z,-8.75
2018-03-02T04:41:26.772Z,-8.68
2018-03-02T04:42:07.339Z,-8.7
2018-03-02T04:42:47.881Z,-8.78
2018-03-02T04:43:28.440Z,-8.64
2018-03-02T04:44:08.992Z,-8.78
2018-03-02T04:44:49.564Z,-8.7
2018-03-02T04:45:30.112Z,-8.75
2018-03-02T04:46:10.676Z,-8.64
2018-03-02T04:46:51.222Z,-8.78
2018-03-02T04:47:31.773Z,-8.65
2018-03-02T04:48:12.345Z,-8.67
2018-03-02T04:48:52.921Z,-8.67
2018-03-02T04:49:33.502Z,-8.79
2018-03-02T04:50:14.086Z,-8.73
2018-03-02T04:50:54.659Z,-8.76
2018-03-02T04:51:35.229Z,-8.79
2018-03-02T04:52:15.815Z,-8.76
2018-03-02T04:52:56.359Z,-8.79
2018-03-02T04:53:36.912Z,-8.7
2018-03-02T04:54:17.459Z,-8.7
2018-03-02T04:54:58.012Z,-8.64
2018-03-02T04:55:38.593Z,-8.72
2018-03-02T04:56:19.151Z,-8.78
2018-03-02T04:56:59.710Z,-8.76
2018-03-02T04:57:40.283Z,-8.67
2018-03-02T04:58:20.847Z,-8.76
2018-03-02T04:59:01.415Z,-8.73
2018-03-02T04:59:41.969Z,-8.79
2018-03-02T05:00:22.508Z,-8.76
2018-03-02T05:01:03.052Z,-8.78
2018-03-02T05:01:43.606Z,-8.81
2018-03-02T05:02:24.154Z,-8.78
2018-03-02T05:03:04.704Z,-8.75
2018-03-02T05:03:45.266Z,-8.82
2018-03-02T05:04:25.828Z,-8.7
2018-03-02T05:05:06.374Z,-8.78
2018-03-02T05:05:47.027Z,-8.75
2018-03-02T05:06:27.740Z,-8.79
2018-03-02T05:07:08.306Z,-8.79
2018-03-02T05:07:48.894Z,-8.79
2018-03-02T05:08:29.461Z,-8.81
2018-03-02T05:09:10.011Z,-8.79
2018-03-02T05:09:50.615Z,-8.86
2018-03-02T05:10:31.168Z,-8.88
2018-03-02T05:11:12.660Z,-8.83
2018-03-02T05:11:53.211Z,-8.78
2018-03-02T05:12:33.764Z,-8.83
2018-03-02T05:13:14.314Z,-8.86
2018-03-02T05:13:54.862Z,-8.92
2018-03-02T05:14:35.445Z,-8.83
2018-03-02T05:15:16.012Z,-8.82
2018-03-02T05:15:56.556Z,-8.94
2018-03-02T05:16:37.144Z,-8.88
2018-03-02T05:17:17.708Z,-8.85
2018-03-02T05:17:58.257Z,-8.83
2018-03-02T05:18:38.807Z,-8.92
2018-03-02T05:19:19.358Z,-8.86
2018-03-02T05:19:59.914Z,-8.86
2018-03-02T05:20:40.477Z,-8.86
2018-03-02T05:21:21.034Z,-8.82
2018-03-02T05:22:01.596Z,-8.78
2018-03-02T05:22:42.145Z,-8.82
2018-03-02T05:23:22.695Z,-8.82
2018-03-02T05:24:03.263Z,-8.85
2018-03-02T05:24:43.827Z,-8.86
2018-03-02T05:25:24.419Z,-8.92
2018-03-02T05:26:04.963Z,-8.82
2018-03-02T05:26:45.543Z,-8.85
2018-03-02T05:27:26.102Z,-8.86
2018-03-02T05:28:06.664Z,-8.88
2018-03-02T05:28:47.176Z,-8.81
2018-03-02T05:29:27.759Z,-8.96
2018-03-02T05:30:08.319Z,-8.93
2018-03-02T05:30:48.925Z,-8.86
2018-03-02T05:31:29.520Z,-8.94
2018-03-02T05:32:10.036Z,-8.94
2018-03-02T05:32:50.583Z,-8.88
2018-03-02T05:33:31.128Z,-8.86
2018-03-02T05:34:11.697Z,-8.88
2018-03-02T05:34:52.341Z,-8.93
2018-03-02T05:35:32.885Z,-8.9
2018-03-02T05:36:13.533Z,-8.86
2018-03-02T05:36:53.984Z,-8.88
2018-03-02T05:37:34.581Z,-8.9
2018-03-02T05:38:15.141Z,-8.81
2018-03-02T05:38:55.691Z,-8.88
2018-03-02T05:39:36.233Z,-8.9
2018-03-02T05:40:16.799Z,-8.94
2018-03-02T05:40:57.343Z,-8.88
2018-03-02T05:41:37.912Z,-8.93
2018-03-02T05:42:18.468Z,-8.88
2018-03-02T05:42:59.041Z,-8.92
2018-03-02T05:43:39.597Z,-8.88
2018-03-02T05:44:20.143Z,-8.9
2018-03-02T05:45:00.718Z,-8.94
2018-03-02T05:45:41.247Z,-8.99
2018-03-02T05:46:21.797Z,-9
2018-03-02T05:47:02.360Z,-9.03
2018-03-02T05:47:42.914Z,-9.11
2018-03-02T05:48:23.475Z,-9.1
2018-03-02T05:49:04.067Z,-9.12
2018-03-02T05:49:44.687Z,-9.07
2018-03-02T05:50:25.211Z,-9.12
2018-03-02T05:51:05.770Z,-9.07
2018-03-02T05:51:46.308Z,-9.02
2018-03-02T05:52:26.854Z,-8.96
2018-03-02T05:53:07.424Z,-8.94
2018-03-02T05:53:47.968Z,-8.92
2018-03-02T05:54:28.528Z,-8.96
2018-03-02T05:55:09.088Z,-8.94
2018-03-02T05:57:24.611Z,-8.96
2018-03-02T05:58:05.160Z,-9
2018-03-02T05:58:45.727Z,-8.9
2018-03-02T05:59:26.262Z,-8.94
2018-03-02T06:00:06.840Z,-8.88
2018-03-02T06:00:47.442Z,-8.88
2018-03-02T06:01:28.012Z,-8.93
2018-03-02T06:02:08.588Z,-8.88
2018-03-02T06:02:49.153Z,-8.85
2018-03-02T06:03:29.675Z,-8.86
2018-03-02T06:04:10.238Z,-8.9
2018-03-02T06:04:50.793Z,-8.85
2018-03-02T06:05:31.343Z,-8.85
2018-03-02T06:06:11.874Z,-8.82
2018-03-02T06:06:52.477Z,-8.9
2018-03-02T06:07:33.048Z,-8.75
2018-03-02T06:08:13.609Z,-8.82
2018-03-02T06:08:54.143Z,-8.88
2018-03-02T06:09:34.695Z,-8.76
2018-03-02T06:10:15.207Z,-8.82
2018-03-02T06:10:55.782Z,-8.83
2018-03-02T06:11:36.341Z,-8.85
2018-03-02T06:12:16.919Z,-8.9
2018-03-02T06:12:57.519Z,-8.94
2018-03-02T06:13:38.074Z,-8.92
2018-03-02T06:14:18.625Z,-8.9
2018-03-02T06:14:59.177Z,-8.94
2018-03-02T06:15:39.731Z,-8.93
2018-03-02T06:16:20.296Z,-8.96
2018-03-02T06:17:00.832Z,-9.04
2018-03-02T06:17:41.401Z,-9.04
2018-03-02T06:18:22.011Z,-9.02
2018-03-02T06:19:02.666Z,-9.07
2018-03-02T06:19:43.233Z,-9.17
2018-03-02T06:20:23.815Z,-9.17
2018-03-02T06:21:04.383Z,-9.17
2018-03-02T06:21:45.030Z,-9.17
2018-03-02T06:22:25.759Z,-9.18
2018-03-02T06:23:06.324Z,-9.17
2018-03-02T06:23:46.871Z,-9.21
2018-03-02T06:24:27.428Z,-9.21
2018-03-02T06:25:07.984Z,-9.18
2018-03-02T06:25:48.533Z,-9.11
2018-03-02T06:26:29.304Z,-9.28
2018-03-02T06:27:10.065Z,-9.18
2018-03-02T06:27:50.688Z,-9.22
2018-03-02T06:28:31.417Z,-9.11
2018-03-02T06:29:11.966Z,-9.21
2018-03-02T06:29:52.500Z,-9.07
2018-03-02T06:30:33.071Z,-9.12
2018-03-02T06:31:13.621Z,-9.14
2018-03-02T06:31:54.160Z,-9.07
2018-03-02T06:32:34.722Z,-9.1
2018-03-02T06:33:15.286Z,-9.02
2018-03-02T06:33:55.842Z,-9.06
2018-03-02T06:34:36.478Z,-9.06
2018-03-02T06:35:17.021Z,-9.04
2018-03-02T06:36:00.195Z,-9.1
2018-03-02T06:36:40.837Z,-8.96
2018-03-02T06:37:21.397Z,-8.99
2018-03-02T06:38:01.949Z,-8.93
2018-03-02T06:38:42.506Z,-8.9
2018-03-02T06:39:23.068Z,-8.94
2018-03-02T06:40:03.627Z,-8.9
2018-03-02T06:40:44.194Z,-8.88
2018-03-02T06:41:24.789Z,-8.78
2018-03-02T06:42:05.368Z,-8.79
2018-03-02T06:42:45.954Z,-8.78
2018-03-02T06:43:26.492Z,-8.75
2018-03-02T06:44:07.930Z,-8.76
2018-03-02T06:44:48.496Z,-8.78
2018-03-02T06:45:29.051Z,-8.81
2018-03-02T06:46:09.604Z,-8.78
2018-03-02T06:46:50.378Z,-8.7
2018-03-02T06:47:30.998Z,-8.7
2018-03-02T06:48:11.542Z,-8.7
2018-03-02T06:48:52.107Z,-8.76
2018-03-02T06:49:32.853Z,-8.7
2018-03-02T06:50:13.403Z,-8.68
2018-03-02T06:50:53.946Z,-8.75
2018-03-02T06:51:34.498Z,-8.7
2018-03-02T06:52:15.066Z,-8.6
2018-03-02T06:52:55.654Z,-8.65
2018-03-02T06:53:36.229Z,-8.67
2018-03-02T06:54:16.794Z,-8.57
2018-03-02T06:54:57.378Z,-8.62
2018-03-02T06:55:37.939Z,-8.58
2018-03-02T06:56:18.502Z,-8.61
2018-03-02T06:56:59.250Z,-8.67
2018-03-02T06:57:39.809Z,-8.58
2018-03-02T06:58:20.370Z,-8.67
2018-03-02T06:59:00.988Z,-8.64
2018-03-02T06:59:41.567Z,-8.64
2018-03-02T07:00:22.167Z,-8.61
2018-03-02T07:01:02.732Z,-8.62
2018-03-02T07:01:43.290Z,-8.61
2018-03-02T07:02:23.850Z,-8.65
2018-03-02T07:03:04.400Z,-8.67
2018-03-02T07:03:44.946Z,-8.65
2018-03-02T07:04:25.533Z,-8.67
2018-03-02T07:05:06.193Z,-8.67
2018-03-02T07:05:46.973Z,-8.65
2018-03-02T07:06:27.513Z,-8.65
2018-03-02T07:07:08.065Z,-8.64
2018-03-02T07:07:48.657Z,-8.67
2018-03-02T07:08:29.241Z,-8.67
2018-03-02T07:09:09.790Z,-8.61
2018-03-02T07:09:50.338Z,-8.65
2018-03-02T07:10:30.894Z,-8.67
2018-03-02T07:11:11.443Z,-8.6
2018-03-02T07:11:52.002Z,-8.62
2018-03-02T07:12:32.554Z,-8.68
2018-03-02T07:13:13.125Z,-8.76
2018-03-02T07:13:53.674Z,-8.7
2018-03-02T07:14:34.240Z,-8.76
2018-03-02T07:15:14.776Z,-8.78
2018-03-02T07:15:55.332Z,-8.62
2018-03-02T07:16:35.899Z,-8.68
2018-03-02T07:17:16.574Z,-8.6
2018-03-02T07:17:57.056Z,-8.6
2018-03-02T07:18:37.603Z,-8.54
2018-03-02T07:19:18.159Z,-8.54
2018-03-02T07:19:58.703Z,-8.54
2018-03-02T07:20:39.283Z,-8.46
2018-03-02T07:21:19.843Z,-8.46
2018-03-02T07:22:00.378Z,-8.49
2018-03-02T07:22:40.930Z,-8.43
2018-03-02T07:23:21.535Z,-8.42
2018-03-02T07:24:02.100Z,-8.44
2018-03-02T07:24:42.658Z,-8.42
2018-03-02T07:25:23.206Z,-8.47
2018-03-02T07:26:03.754Z,-8.49
2018-03-02T07:26:44.314Z,-8.49
2018-03-02T07:27:24.909Z,-8.47
2018-03-02T07:28:05.471Z,-8.43
2018-03-02T07:28:46.022Z,-8.42
2018-03-02T07:29:26.585Z,-8.4
2018-03-02T07:30:07.129Z,-8.47
2018-03-02T07:30:47.732Z,-8.49
2018-03-02T07:31:28.352Z,-8.44
2018-03-02T07:32:10.135Z,-8.39
2018-03-02T07:32:51.653Z,-8.34
2018-03-02T07:33:32.222Z,-8.31
2018-03-02T07:34:14.643Z,-8.26
2018-03-02T07:34:55.188Z,-8.29
2018-03-02T07:35:35.747Z,-8.28
2018-03-02T07:36:16.317Z,-8.29
2018-03-02T07:36:56.870Z,-8.25
2018-03-02T07:37:37.435Z,-8.22
2018-03-02T07:38:17.996Z,-8.21
2018-03-02T07:38:58.556Z,-8.22
2018-03-02T07:39:39.129Z,-8.25
2018-03-02T07:40:19.680Z,-8.15
2018-03-02T07:41:00.243Z,-8.11
2018-03-02T07:41:40.790Z,-8.11
2018-03-02T07:42:21.347Z,-8.1
2018-03-02T07:43:01.920Z,-8.04
2018-03-02T07:43:42.467Z,-8.07
2018-03-02T07:44:23.026Z,-8.08
2018-03-02T07:45:03.586Z,-8.08
2018-03-02T07:45:44.141Z,-8.07
2018-03-02T07:46:24.748Z,-8.04
2018-03-02T07:47:05.297Z,-8.07
2018-03-02T07:47:45.851Z,-8.03
2018-03-02T07:48:26.407Z,-7.92
2018-03-02T07:49:06.954Z,-7.85
2018-03-02T07:49:47.591Z,-7.79
2018-03-02T07:50:28.146Z,-7.7
2018-03-02T07:51:08.706Z,-7.7
2018-03-02T07:51:49.254Z,-7.64
2018-03-02T07:52:29.816Z,-7.53
2018-03-02T07:53:10.375Z,-7.43
2018-03-02T07:53:50.925Z,-7.15
2018-03-02T07:54:31.483Z,-6.96
2018-03-02T07:55:12.046Z,-6.75
2018-03-02T07:55:52.597Z,-6.47
2018-03-02T07:56:33.151Z,-6.21
2018-03-02T07:57:13.724Z,-5.97
2018-03-02T07:57:54.273Z,-5.74
2018-03-02T07:58:34.827Z,-5.57
2018-03-02T07:59:15.385Z,-5.43
2018-03-02T07:59:55.928Z,-5.28
2018-03-02T08:00:36.516Z,-5.17
2018-03-02T08:01:17.066Z,-4.99
2018-03-02T08:01:57.606Z,-4.81
2018-03-02T08:02:38.198Z,-4.73
2018-03-02T08:03:18.776Z,-4.61
2018-03-02T08:03:59.343Z,-4.46
2018-03-02T08:04:39.895Z,-4.32
2018-03-02T08:05:20.459Z,-4.13
2018-03-02T08:06:00.994Z,-4.14
2018-03-02T08:06:41.545Z,-3.95
2018-03-02T08:07:22.109Z,-3.8
2018-03-02T08:08:02.669Z,-3.69
2018-03-02T08:08:43.242Z,-3.51
2018-03-02T08:09:23.813Z,-3.33
2018-03-02T08:10:04.380Z,-3.22
2018-03-02T08:10:44.941Z,-2.83
2018-03-02T08:11:25.505Z,-2.78
2018-03-02T08:12:06.060Z,-2.56
2018-03-02T08:12:46.628Z,-2.44
2018-03-02T08:13:27.182Z,-2.23
2018-03-02T08:14:07.738Z,-2.15
2018-03-02T08:14:48.293Z,-2.13
2018-03-02T08:15:28.856Z,-2.01
2018-03-02T08:16:09.434Z,-2
2018-03-02T08:16:49.998Z,-1.76
2018-03-02T08:17:30.539Z,-1.3
2018-03-02T08:18:11.138Z,-0.64
2018-03-02T08:18:51.684Z,-0.23
2018-03-02T08:19:32.243Z,0.22
2018-03-02T08:20:12.812Z,0.56
2018-03-02T08:20:53.354Z,0.73
2018-03-02T08:21:33.923Z,0.81
2018-03-02T08:22:14.495Z,0.94
2018-03-02T08:22:55.102Z,0.94
2018-03-02T08:23:35.643Z,0.91
2018-03-02T08:24:16.209Z,0.83
2018-03-02T08:24:56.809Z,0.8
2018-03-02T08:25:37.311Z,0.76
2018-03-02T08:26:17.924Z,0.68
2018-03-02T08:26:58.432Z,0.63
2018-03-02T08:27:39.052Z,0.49
2018-03-02T08:28:19.654Z,0.52
2018-03-02T08:29:00.234Z,0.49
2018-03-02T08:29:40.814Z,0.56
2018-03-02T08:30:21.497Z,0.74
2018-03-02T08:31:02.050Z,0.66
2018-03-02T08:31:42.613Z,0.65
2018-03-02T08:32:23.179Z,0.63
2018-03-02T08:33:03.770Z,0.47
2018-03-02T08:33:44.321Z,0.58
2018-03-02T08:34:24.880Z,0.46
2018-03-02T08:35:05.449Z,0.25
2018-03-02T08:35:45.993Z,0.18
2018-03-02T08:36:26.582Z,0.07
2018-03-02T08:37:07.182Z,-0.1
2018-03-02T08:37:47.755Z,-0.23
2018-03-02T08:38:28.935Z,-0.21
2018-03-02T08:39:09.620Z,-0.31
2018-03-02T08:39:50.185Z,-0.52
2018-03-02T08:40:30.746Z,-0.65
2018-03-02T08:41:11.292Z,-0.64
2018-03-02T08:41:51.852Z,-0.56
2018-03-02T08:42:32.396Z,-0.62
2018-03-02T08:43:12.955Z,-0.67
2018-03-02T08:43:53.586Z,-0.74
2018-03-02T08:44:34.140Z,-0.64
2018-03-02T08:45:14.708Z,-0.67
2018-03-02T08:45:55.260Z,-0.52
2018-03-02T08:46:35.818Z,-0.39
2018-03-02T08:47:16.405Z,-0.32
2018-03-02T08:47:56.984Z,-0.32